Time;durP1;ratioP1;P1;durP2;ratioP2;P2;SDS_P1;SDS_P2;PMS_P1;PMS_P2;Temp;Humidity;BMP_temperature;BMP_pressure;BME280_temperature;BME280_humidity;BME280_pressure;Samples;Min_cycle;Max_cycle;Signal;HPM_P1;HPM_P2
2022/03/31 00:02:14;;;;;;;2.13;1.50;;;;;;;;;;4798421;29;20051;-76
2022/03/31 00:04:40;;;;;;;1.63;1.52;;;;;;;;;;4780458;29;20078;-76
2022/03/31 00:07:06;;;;;;;2.90;1.52;;;;;;;;;;4797583;29;20550;-76
2022/03/31 00:09:32;;;;;;;1.67;1.40;;;;;;;;;;4782474;29;20068;-76
2022/03/31 00:11:59;;;;;;;3.60;1.63;;;;;;;;;;4797424;29;20059;-76
2022/03/31 00:14:26;;;;;;;2.22;1.60;;;;;;;;;;4799080;29;20058;-76
2022/03/31 00:16:52;;;;;;;2.92;1.67;;;;;;;;;;4787015;29;20074;-75
2022/03/31 00:19:21;;;;;;;2.70;1.60;;;;;;;;;;4799447;29;20047;-76
2022/03/31 00:24:51;;;;;;;2.97;1.73;;;;;;;;;;4801013;29;20404;-76
2022/03/31 00:27:17;;;;;;;2.65;2.00;;;;;;;;;;4783793;29;20493;-76
2022/03/31 00:29:43;;;;;;;1.63;1.40;;;;;;;;;;4799307;29;20055;-76
2022/03/31 00:32:09;;;;;;;2.03;1.77;;;;;;;;;;4793813;29;20055;-76
2022/03/31 00:34:35;;;;;;;2.63;1.90;;;;;;;;;;4785961;29;20129;-76
2022/03/31 00:37:02;;;;;;;2.00;1.40;;;;;;;;;;4784178;29;20142;-76
2022/03/31 00:39:34;;;;;;;1.50;1.40;;;;;;;;;;4803074;29;20046;-76
2022/03/31 00:42:02;;;;;;;1.67;1.52;;;;;;;;;;4801341;29;20098;-76
2022/03/31 00:44:28;;;;;;;4.75;1.77;;;;;;;;;;4785895;29;20055;-76
2022/03/31 00:46:55;;;;;;;2.28;1.70;;;;;;;;;;4785747;29;20058;-75
2022/03/31 00:49:22;;;;;;;2.03;1.70;;;;;;;;;;4773744;29;20042;-76
2022/03/31 00:51:49;;;;;;;3.55;1.80;;;;;;;;;;4803286;29;20047;-76
2022/03/31 00:54:16;;;;;;;2.45;1.58;;;;;;;;;;4801489;29;20051;-76
2022/03/31 00:56:43;;;;;;;2.47;1.67;;;;;;;;;;4805149;29;20129;-76
2022/03/31 00:59:11;;;;;;;3.40;1.75;;;;;;;;;;4801230;29;20047;-76
2022/03/31 01:01:40;;;;;;;2.03;1.52;;;;;;;;;;4799433;29;20067;-76
2022/03/31 01:04:07;;;;;;;2.83;1.80;;;;;;;;;;4799341;29;20126;-76
2022/03/31 01:06:33;;;;;;;2.88;1.60;;;;;;;;;;4801932;29;20039;-76
2022/03/31 01:08:59;;;;;;;2.15;1.90;;;;;;;;;;4787277;29;20062;-76
2022/03/31 01:11:25;;;;;;;3.20;1.63;;;;;;;;;;4801603;29;20051;-75
2022/03/31 01:13:52;;;;;;;3.70;1.70;;;;;;;;;;4781713;29;20063;-76
2022/03/31 01:16:18;;;;;;;3.53;1.70;;;;;;;;;;4802165;29;20058;-76
2022/03/31 01:18:44;;;;;;;1.80;1.70;;;;;;;;;;4784154;29;20067;-76
2022/03/31 01:21:10;;;;;;;2.67;1.83;;;;;;;;;;4784946;29;20129;-76
2022/03/31 01:23:37;;;;;;;1.73;1.63;;;;;;;;;;4785794;29;20047;-76
2022/03/31 01:26:06;;;;;;;2.33;1.80;;;;;;;;;;4786130;29;20539;-76
2022/03/31 01:28:33;;;;;;;2.15;1.70;;;;;;;;;;4781579;29;20062;-76
2022/03/31 01:30:59;;;;;;;2.58;1.80;;;;;;;;;;4802504;29;20112;-75
2022/03/31 01:33:25;;;;;;;1.63;1.52;;;;;;;;;;4784405;29;20089;-75
2022/03/31 01:35:51;;;;;;;2.38;1.70;;;;;;;;;;4802338;29;20043;-75
2022/03/31 01:38:18;;;;;;;2.22;1.77;;;;;;;;;;4784869;29;20499;-76
2022/03/31 01:40:44;;;;;;;6.45;2.25;;;;;;;;;;4785542;29;20054;-76
2022/03/31 01:43:10;;;;;;;2.85;1.80;;;;;;;;;;4783189;29;20070;-75
2022/03/31 01:45:37;;;;;;;2.92;1.70;;;;;;;;;;4802719;29;20111;-76
2022/03/31 01:48:03;;;;;;;1.92;1.70;;;;;;;;;;4803420;29;20054;-75
2022/03/31 01:50:29;;;;;;;3.05;1.65;;;;;;;;;;4798242;29;20059;-76
2022/03/31 01:52:58;;;;;;;2.70;1.80;;;;;;;;;;4802377;29;20070;-75
2022/03/31 01:55:24;;;;;;;5.68;2.08;;;;;;;;;;4785715;29;20062;-75
2022/03/31 01:57:51;;;;;;;4.65;2.00;;;;;;;;;;4785524;29;20484;-75
2022/03/31 02:00:17;;;;;;;2.88;1.80;;;;;;;;;;4783438;29;20492;-75
2022/03/31 02:02:43;;;;;;;3.63;1.98;;;;;;;;;;4798523;29;20054;-75
2022/03/31 02:05:10;;;;;;;5.30;1.90;;;;;;;;;;4800089;29;20111;-76
2022/03/31 02:07:39;;;;;;;3.80;1.77;;;;;;;;;;4780674;29;20051;-75
2022/03/31 02:10:08;;;;;;;3.53;1.98;;;;;;;;;;4801823;29;20054;-76
2022/03/31 02:12:34;;;;;;;4.32;1.90;;;;;;;;;;4801836;29;20397;-75
2022/03/31 02:15:01;;;;;;;2.67;1.60;;;;;;;;;;4784296;29;20055;-76
2022/03/31 02:17:27;;;;;;;1.73;1.52;;;;;;;;;;4801117;29;20640;-76
2022/03/31 02:19:53;;;;;;;2.13;1.60;;;;;;;;;;4798512;29;20054;-75
2022/03/31 02:22:19;;;;;;;2.10;1.55;;;;;;;;;;4801962;29;20496;-75
2022/03/31 02:24:45;;;;;;;2.83;1.60;;;;;;;;;;4799807;29;20054;-75
2022/03/31 02:27:11;;;;;;;2.85;1.90;;;;;;;;;;4783324;29;20051;-75
2022/03/31 02:29:38;;;;;;;2.65;1.63;;;;;;;;;;4797684;29;20051;-75
2022/03/31 02:32:06;;;;;;;4.22;1.67;;;;;;;;;;4785896;29;20400;-75
2022/03/31 02:34:32;;;;;;;2.78;1.60;;;;;;;;;;4784202;29;20054;-75
2022/03/31 02:36:58;;;;;;;1.70;1.60;;;;;;;;;;4801916;29;20193;-75
2022/03/31 02:39:24;;;;;;;3.13;1.60;;;;;;;;;;4799363;29;20492;-75
2022/03/31 02:41:50;;;;;;;3.63;1.75;;;;;;;;;;4785355;29;20062;-75
2022/03/31 02:44:16;;;;;;;1.88;1.73;;;;;;;;;;4797800;29;20062;-75
2022/03/31 02:46:42;;;;;;;2.50;1.60;;;;;;;;;;4781110;29;20043;-75
2022/03/31 02:49:09;;;;;;;4.05;1.90;;;;;;;;;;4801097;29;20058;-75
2022/03/31 02:51:41;;;;;;;4.15;2.15;;;;;;;;;;4784556;29;20477;-75
2022/03/31 02:56:53;;;;;;;2.95;2.58;;;;;;;;;;4802218;29;20043;-75
2022/03/31 02:59:19;;;;;;;2.60;2.00;;;;;;;;;;4783753;29;20050;-75
2022/03/31 03:01:46;;;;;;;3.05;1.40;;;;;;;;;;4780164;29;20137;-77
2022/03/31 03:04:13;;;;;;;3.13;1.50;;;;;;;;;;4797814;29;20057;-75
2022/03/31 03:06:39;;;;;;;2.85;1.60;;;;;;;;;;4783420;29;20136;-75
2022/03/31 03:09:06;;;;;;;1.88;1.40;;;;;;;;;;4799029;29;20047;-75
2022/03/31 03:11:32;;;;;;;2.10;1.98;;;;;;;;;;4784429;29;20054;-76
2022/03/31 03:13:58;;;;;;;4.47;2.20;;;;;;;;;;4802150;29;20097;-75
2022/03/31 03:16:25;;;;;;;2.58;2.38;;;;;;;;;;4800450;29;20074;-75
2022/03/31 03:18:52;;;;;;;3.95;2.50;;;;;;;;;;4800333;29;20111;-75
2022/03/31 03:21:18;;;;;;;4.05;2.67;;;;;;;;;;4798578;29;20385;-75
2022/03/31 03:23:44;;;;;;;3.60;2.25;;;;;;;;;;4798956;29;20406;-75
2022/03/31 03:26:10;;;;;;;2.67;2.30;;;;;;;;;;4798265;29;20512;-75
2022/03/31 03:28:36;;;;;;;3.88;2.80;;;;;;;;;;4801041;29;20111;-75
2022/03/31 03:31:03;;;;;;;3.33;2.75;;;;;;;;;;4800508;29;20050;-75
2022/03/31 03:33:31;;;;;;;4.40;3.17;;;;;;;;;;4799538;29;20083;-75
2022/03/31 03:35:57;;;;;;;6.20;3.35;;;;;;;;;;4786986;29;20071;-75
2022/03/31 03:38:26;;;;;;;5.05;3.50;;;;;;;;;;4804749;29;20097;-76
2022/03/31 03:40:52;;;;;;;6.65;4.15;;;;;;;;;;4801603;29;20093;-75
2022/03/31 03:43:18;;;;;;;5.07;3.88;;;;;;;;;;4802558;29;20090;-75
2022/03/31 03:45:44;;;;;;;5.82;3.90;;;;;;;;;;4802780;29;20042;-75
2022/03/31 03:48:11;;;;;;;4.15;3.85;;;;;;;;;;4804229;29;20126;-75
2022/03/31 03:50:38;;;;;;;4.75;4.30;;;;;;;;;;4802463;29;20043;-75
2022/03/31 03:53:04;;;;;;;7.45;4.85;;;;;;;;;;4786296;29;20112;-75
2022/03/31 03:55:34;;;;;;;5.38;4.80;;;;;;;;;;4785141;29;20055;-75
2022/03/31 03:58:01;;;;;;;5.38;4.88;;;;;;;;;;4803727;29;20089;-75
2022/03/31 04:00:27;;;;;;;5.30;4.80;;;;;;;;;;4801796;29;20179;-75
2022/03/31 04:02:53;;;;;;;4.75;4.30;;;;;;;;;;4799234;29;20137;-75
2022/03/31 04:05:20;;;;;;;4.30;3.95;;;;;;;;;;4803422;29;20074;-75
2022/03/31 04:07:46;;;;;;;4.45;4.05;;;;;;;;;;4786553;29;20063;-75
2022/03/31 04:10:12;;;;;;;5.18;3.60;;;;;;;;;;4801213;29;20074;-75
2022/03/31 04:12:39;;;;;;;4.70;3.83;;;;;;;;;;4802778;29;20451;-75
2022/03/31 04:15:06;;;;;;;4.78;3.90;;;;;;;;;;4804385;29;20078;-74
2022/03/31 04:17:32;;;;;;;4.82;3.83;;;;;;;;;;4802751;29;20478;-75
2022/03/31 04:19:58;;;;;;;3.90;3.47;;;;;;;;;;4785199;29;20054;-75
2022/03/31 04:22:24;;;;;;;3.35;3.00;;;;;;;;;;4786611;29;20599;-75
2022/03/31 04:24:50;;;;;;;3.75;2.80;;;;;;;;;;4786161;29;20407;-75
2022/03/31 04:27:17;;;;;;;2.92;2.63;;;;;;;;;;4803900;29;20446;-75
2022/03/31 04:29:43;;;;;;;3.55;2.63;;;;;;;;;;4782874;29;20047;-75
2022/03/31 04:32:09;;;;;;;3.20;2.90;;;;;;;;;;4795533;29;20053;-75
2022/03/31 04:34:35;;;;;;;2.97;2.67;;;;;;;;;;4799134;29;20515;-75
2022/03/31 04:37:02;;;;;;;2.55;2.35;;;;;;;;;;4804243;29;20074;-75
2022/03/31 04:39:28;;;;;;;2.80;2.50;;;;;;;;;;4802367;29;20442;-75
2022/03/31 04:41:54;;;;;;;2.45;2.25;;;;;;;;;;4803216;29;20094;-75
2022/03/31 04:44:20;;;;;;;2.72;2.40;;;;;;;;;;4785757;29;20108;-75
2022/03/31 04:46:47;;;;;;;2.95;2.50;;;;;;;;;;4783784;29;20488;-75
2022/03/31 04:49:13;;;;;;;3.40;2.60;;;;;;;;;;4802455;29;20492;-75
2022/03/31 04:51:39;;;;;;;2.58;2.20;;;;;;;;;;4804566;29;20042;-75
2022/03/31 04:54:05;;;;;;;4.43;2.78;;;;;;;;;;4801990;29;20047;-75
2022/03/31 04:56:32;;;;;;;3.88;2.53;;;;;;;;;;4802958;29;20042;-76
2022/03/31 04:58:58;;;;;;;2.70;2.50;;;;;;;;;;4780625;29;20399;-75
2022/03/31 05:01:24;;;;;;;2.70;2.50;;;;;;;;;;4798787;29;20043;-75
2022/03/31 05:03:51;;;;;;;3.53;2.35;;;;;;;;;;4787363;29;20104;-75
2022/03/31 05:06:17;;;;;;;3.03;2.65;;;;;;;;;;4782706;29;20058;-76
2022/03/31 05:08:43;;;;;;;2.35;2.20;;;;;;;;;;4786890;29;20055;-76
2022/03/31 05:11:09;;;;;;;2.53;2.03;;;;;;;;;;4801299;29;20062;-76
2022/03/31 05:13:35;;;;;;;2.67;2.20;;;;;;;;;;4784629;29;20057;-76
2022/03/31 05:16:02;;;;;;;2.65;2.17;;;;;;;;;;4802636;29;20122;-76
2022/03/31 05:18:28;;;;;;;1.92;1.83;;;;;;;;;;4796435;29;20064;-76
2022/03/31 05:20:54;;;;;;;1.80;1.70;;;;;;;;;;4799869;29;20058;-77
2022/03/31 05:23:20;;;;;;;3.28;2.30;;;;;;;;;;4785291;29;20058;-77
2022/03/31 05:25:47;;;;;;;3.17;2.13;;;;;;;;;;4801025;29;20043;-76
2022/03/31 05:28:13;;;;;;;2.17;2.00;;;;;;;;;;4804332;29;20050;-77
2022/03/31 05:30:39;;;;;;;4.47;2.20;;;;;;;;;;4803302;29;20043;-77
2022/03/31 05:33:07;;;;;;;3.15;2.00;;;;;;;;;;4789097;29;20129;-77
2022/03/31 05:35:33;;;;;;;3.42;1.95;;;;;;;;;;4785896;29;20062;-76
2022/03/31 05:38:03;;;;;;;4.07;1.77;;;;;;;;;;4806437;29;20057;-76
2022/03/31 05:40:29;;;;;;;2.38;1.80;;;;;;;;;;4802718;29;21334;-76
2022/03/31 05:42:55;;;;;;;2.13;1.92;;;;;;;;;;4801205;29;20093;-75
2022/03/31 05:45:22;;;;;;;2.00;1.85;;;;;;;;;;4798093;29;20050;-76
2022/03/31 05:47:48;;;;;;;2.38;2.00;;;;;;;;;;4798288;29;20412;-75
2022/03/31 05:50:15;;;;;;;2.28;2.00;;;;;;;;;;4800278;29;20050;-75
2022/03/31 05:52:44;;;;;;;3.00;2.20;;;;;;;;;;4799670;29;20047;-76
2022/03/31 05:55:14;;;;;;;2.85;2.40;;;;;;;;;;4801231;29;20396;-76
2022/03/31 05:57:40;;;;;;;2.40;2.20;;;;;;;;;;4801831;29;20056;-76
2022/03/31 06:00:08;;;;;;;2.90;2.42;;;;;;;;;;4802763;29;20055;-75
2022/03/31 06:02:34;;;;;;;3.80;2.20;;;;;;;;;;4784183;29;20061;-75
2022/03/31 06:05:00;;;;;;;2.78;2.38;;;;;;;;;;4803113;29;20400;-76
2022/03/31 06:07:26;;;;;;;3.60;2.40;;;;;;;;;;4788140;29;20051;-76
2022/03/31 06:09:54;;;;;;;3.08;2.42;;;;;;;;;;4798379;29;20142;-76
2022/03/31 06:12:20;;;;;;;2.90;2.70;;;;;;;;;;4781364;29;20206;-75
2022/03/31 06:14:46;;;;;;;3.20;2.70;;;;;;;;;;4799018;29;20095;-75
2022/03/31 06:17:13;;;;;;;2.80;2.60;;;;;;;;;;4780569;29;20055;-76
2022/03/31 06:19:39;;;;;;;2.78;2.47;;;;;;;;;;4802231;29;20046;-76
2022/03/31 06:22:05;;;;;;;3.97;3.05;;;;;;;;;;4785112;29;20063;-75
2022/03/31 06:24:31;;;;;;;3.85;2.88;;;;;;;;;;4802495;29;20573;-76
2022/03/31 06:26:57;;;;;;;3.20;2.90;;;;;;;;;;4803195;29;20408;-76
2022/03/31 06:29:25;;;;;;;3.97;3.38;;;;;;;;;;4786577;29;20098;-76
2022/03/31 06:31:51;;;;;;;3.97;3.28;;;;;;;;;;4802199;29;20054;-76
2022/03/31 06:34:18;;;;;;;3.30;2.95;;;;;;;;;;4799949;29;20047;-75
2022/03/31 06:36:44;;;;;;;5.15;3.30;;;;;;;;;;4786328;29;20552;-76
2022/03/31 06:39:10;;;;;;;4.38;3.42;;;;;;;;;;4785949;29;20100;-76
2022/03/31 06:41:36;;;;;;;3.53;3.20;;;;;;;;;;4787048;29;20416;-75
2022/03/31 06:44:03;;;;;;;3.92;3.25;;;;;;;;;;4787150;29;20166;-75
2022/03/31 06:46:29;;;;;;;4.18;3.72;;;;;;;;;;4785516;29;20061;-75
2022/03/31 06:48:55;;;;;;;4.10;3.47;;;;;;;;;;4787057;29;20184;-76
2022/03/31 06:51:21;;;;;;;4.93;3.17;;;;;;;;;;4802395;29;20122;-76
2022/03/31 06:53:47;;;;;;;3.65;3.17;;;;;;;;;;4802047;29;20058;-76
2022/03/31 06:56:14;;;;;;;3.90;3.50;;;;;;;;;;4801241;29;20054;-76
2022/03/31 06:58:40;;;;;;;3.63;3.03;;;;;;;;;;4801979;29;20399;-76
2022/03/31 07:01:06;;;;;;;3.40;3.10;;;;;;;;;;4800457;29;20043;-76
2022/03/31 07:03:33;;;;;;;3.17;2.88;;;;;;;;;;4786665;29;20528;-76
2022/03/31 07:05:59;;;;;;;3.08;2.88;;;;;;;;;;4802663;29;20093;-76
2022/03/31 07:08:26;;;;;;;3.00;2.30;;;;;;;;;;4800067;29;20055;-76
2022/03/31 07:10:52;;;;;;;2.28;2.17;;;;;;;;;;4780952;29;20115;-76
2022/03/31 07:13:18;;;;;;;4.25;2.60;;;;;;;;;;4801083;29;20050;-76
2022/03/31 07:15:44;;;;;;;2.85;2.65;;;;;;;;;;4803606;29;20047;-76
2022/03/31 07:18:10;;;;;;;3.15;2.60;;;;;;;;;;4799483;29;20074;-75
2022/03/31 07:20:37;;;;;;;3.58;2.67;;;;;;;;;;4785767;29;20043;-76
2022/03/31 07:23:06;;;;;;;2.85;2.65;;;;;;;;;;4780633;30;20043;-75
2022/03/31 07:25:32;;;;;;;3.42;2.80;;;;;;;;;;4802108;29;20050;-75
2022/03/31 07:28:01;;;;;;;3.58;2.70;;;;;;;;;;4785343;29;20047;-76
2022/03/31 07:30:27;;;;;;;2.85;2.65;;;;;;;;;;4786403;29;20137;-75
2022/03/31 07:32:58;;;;;;;3.15;2.95;;;;;;;;;;4802076;29;20066;-75
2022/03/31 07:35:25;;;;;;;3.40;3.10;;;;;;;;;;4801198;29;20043;-76
2022/03/31 07:37:52;;;;;;;2.90;2.70;;;;;;;;;;4802297;29;20083;-75
2022/03/31 07:40:20;;;;;;;2.97;2.75;;;;;;;;;;4801670;29;20097;-76
2022/03/31 07:42:46;;;;;;;3.60;3.30;;;;;;;;;;4784940;29;20141;-75
2022/03/31 07:45:12;;;;;;;3.65;3.15;;;;;;;;;;4802995;29;20197;-75
2022/03/31 07:47:39;;;;;;;3.28;3.05;;;;;;;;;;4802690;29;20061;-75
2022/03/31 07:50:06;;;;;;;4.85;3.55;;;;;;;;;;4800064;29;20073;-75
2022/03/31 07:52:32;;;;;;;3.70;3.40;;;;;;;;;;4802252;29;20054;-76
2022/03/31 07:54:58;;;;;;;3.78;3.35;;;;;;;;;;4784173;29;20054;-76
2022/03/31 07:57:24;;;;;;;4.10;3.70;;;;;;;;;;4802256;29;20061;-76
2022/03/31 07:59:50;;;;;;;4.00;3.60;;;;;;;;;;4802614;29;20082;-76
2022/03/31 08:02:16;;;;;;;4.00;3.70;;;;;;;;;;4799464;29;20113;-76
2022/03/31 08:04:43;;;;;;;3.92;3.63;;;;;;;;;;4801591;29;20062;-76
2022/03/31 08:07:09;;;;;;;4.05;3.63;;;;;;;;;;4802186;29;20111;-75
2022/03/31 08:09:35;;;;;;;3.90;3.60;;;;;;;;;;4801647;29;20039;-75
2022/03/31 08:12:01;;;;;;;3.72;3.42;;;;;;;;;;4787497;29;20095;-75
2022/03/31 08:14:29;;;;;;;3.90;3.60;;;;;;;;;;4801070;29;20427;-75
2022/03/31 08:16:55;;;;;;;3.88;3.58;;;;;;;;;;4781501;29;20071;-76
2022/03/31 08:19:21;;;;;;;3.83;3.47;;;;;;;;;;4785289;29;20055;-76
2022/03/31 08:21:48;;;;;;;5.22;3.92;;;;;;;;;;4804651;29;20045;-75
2022/03/31 08:24:16;;;;;;;4.15;3.85;;;;;;;;;;4786483;29;20078;-75
2022/03/31 08:26:42;;;;;;;4.20;3.90;;;;;;;;;;4803585;29;20095;-75
2022/03/31 08:29:09;;;;;;;4.30;3.90;;;;;;;;;;4805269;29;20059;-75
2022/03/31 08:31:35;;;;;;;3.90;3.60;;;;;;;;;;4804860;29;20085;-76
2022/03/31 08:34:02;;;;;;;4.20;3.90;;;;;;;;;;4806179;29;20415;-75
2022/03/31 08:36:29;;;;;;;5.10;4.18;;;;;;;;;;4804112;29;20042;-75
2022/03/31 08:38:55;;;;;;;4.15;3.80;;;;;;;;;;4804925;29;20062;-75
2022/03/31 08:41:23;;;;;;;4.55;4.15;;;;;;;;;;4783047;29;20079;-75
2022/03/31 08:43:50;;;;;;;3.80;3.50;;;;;;;;;;4787653;29;20474;-75
2022/03/31 08:46:20;;;;;;;3.40;3.10;;;;;;;;;;4787168;29;20449;-75
2022/03/31 08:48:46;;;;;;;3.75;3.45;;;;;;;;;;4770286;30;20526;-75
2022/03/31 08:51:12;;;;;;;4.20;3.80;;;;;;;;;;4786683;29;20043;-75
2022/03/31 08:53:38;;;;;;;4.60;4.20;;;;;;;;;;4790515;29;20055;-75
2022/03/31 08:56:05;;;;;;;4.53;4.13;;;;;;;;;;4771479;29;20497;-76
2022/03/31 08:58:31;;;;;;;4.70;4.30;;;;;;;;;;4770880;29;20048;-75
2022/03/31 09:00:57;;;;;;;5.68;5.18;;;;;;;;;;4788553;29;20129;-76
2022/03/31 09:03:33;;;;;;;5.45;4.95;;;;;;;;;;4780278;29;20151;-75
2022/03/31 09:05:59;;;;;;;6.03;5.43;;;;;;;;;;4783303;29;20057;-75
2022/03/31 09:08:25;;;;;;;6.15;5.55;;;;;;;;;;4787127;29;20055;-75
2022/03/31 09:10:55;;;;;;;5.32;4.82;;;;;;;;;;4788234;29;20047;-75
2022/03/31 09:13:28;;;;;;;4.97;4.47;;;;;;;;;;4770097;29;20078;-75
2022/03/31 09:15:56;;;;;;;4.30;4.00;;;;;;;;;;4781538;29;20058;-75
2022/03/31 09:18:23;;;;;;;4.80;4.40;;;;;;;;;;4787242;29;20082;-75
2022/03/31 09:20:50;;;;;;;4.40;4.03;;;;;;;;;;4770705;30;20108;-75
2022/03/31 09:23:20;;;;;;;4.68;4.28;;;;;;;;;;4770906;29;20408;-75
2022/03/31 09:25:47;;;;;;;3.97;3.67;;;;;;;;;;4782379;29;20079;-75
2022/03/31 09:28:20;;;;;;;3.80;3.50;;;;;;;;;;4787137;29;20082;-75
2022/03/31 09:30:47;;;;;;;3.17;2.97;;;;;;;;;;4782161;29;20104;-75
2022/03/31 09:33:34;;;;;;;7.13;6.53;;;;;;;;;;4768449;29;20070;-76
2022/03/31 09:36:02;;;;;;;5.20;3.10;;;;;;;;;;4789330;29;20343;-76
2022/03/31 09:38:28;;;;;;;3.30;3.10;;;;;;;;;;4787385;29;20059;-76
2022/03/31 09:40:54;;;;;;;3.42;3.20;;;;;;;;;;4786186;29;20051;-76
2022/03/31 09:43:21;;;;;;;3.60;3.30;;;;;;;;;;4801957;29;20069;-76
2022/03/31 09:45:48;;;;;;;3.45;3.15;;;;;;;;;;4804473;29;20113;-76
2022/03/31 09:48:21;;;;;;;3.47;3.17;;;;;;;;;;4786179;29;20050;-75
2022/03/31 09:50:48;;;;;;;4.00;3.30;;;;;;;;;;4803978;29;20104;-76
2022/03/31 09:53:17;;;;;;;3.80;3.10;;;;;;;;;;4803568;29;20042;-76
2022/03/31 09:55:44;;;;;;;3.53;3.22;;;;;;;;;;4770366;29;20050;-76
2022/03/31 09:58:13;;;;;;;3.50;3.20;;;;;;;;;;4787390;29;20039;-75
2022/03/31 10:00:40;;;;;;;3.47;3.17;;;;;;;;;;4784241;29;20111;-76
2022/03/31 10:03:07;;;;;;;4.25;3.50;;;;;;;;;;4786204;29;20054;-76
2022/03/31 10:05:33;;;;;;;3.60;3.30;;;;;;;;;;4803290;29;20081;-75
2022/03/31 10:08:00;;;;;;;3.88;3.50;;;;;;;;;;4785324;29;20081;-75
2022/03/31 10:10:27;;;;;;;3.67;3.30;;;;;;;;;;4786576;29;20065;-76
2022/03/31 10:13:02;;;;;;;3.78;3.47;;;;;;;;;;4801066;29;20119;-76
2022/03/31 10:15:30;;;;;;;4.38;3.75;;;;;;;;;;4802116;29;20088;-76
2022/03/31 10:17:56;;;;;;;3.60;3.30;;;;;;;;;;4782047;29;20100;-76
2022/03/31 10:20:23;;;;;;;3.60;3.30;;;;;;;;;;4800635;29;20055;-76
2022/03/31 10:25:46;;;;;;;4.10;3.70;;;;;;;;;;4799627;29;20063;-77
2022/03/31 10:28:16;;;;;;;4.20;3.80;;;;;;;;;;4785812;29;20400;-75
2022/03/31 10:30:58;;;;;;;4.00;3.50;;;;;;;;;;4802859;29;20440;-82
2022/03/31 10:33:47;;;;;;;3.97;3.63;;;;;;;;;;4785690;29;20766;-76
2022/03/31 10:36:14;;;;;;;3.50;3.20;;;;;;;;;;4802491;29;20050;-76
2022/03/31 10:39:10;;;;;;;3.88;3.58;;;;;;;;;;4786740;29;20130;-76
2022/03/31 10:41:38;;;;;;;3.08;2.88;;;;;;;;;;4773463;29;20111;-76
2022/03/31 10:44:16;;;;;;;3.63;3.33;;;;;;;;;;4784569;29;20097;-76
2022/03/31 10:46:43;;;;;;;4.20;3.38;;;;;;;;;;4801523;29;20051;-76
2022/03/31 10:49:12;;;;;;;3.70;3.40;;;;;;;;;;4802233;29;20111;-76
2022/03/31 10:51:39;;;;;;;4.00;3.70;;;;;;;;;;4782615;29;20456;-75
2022/03/31 10:54:06;;;;;;;3.78;3.47;;;;;;;;;;4801432;29;20058;-75
2022/03/31 10:56:33;;;;;;;3.97;3.67;;;;;;;;;;4803100;29;20047;-75
2022/03/31 10:59:00;;;;;;;4.10;3.70;;;;;;;;;;4786053;29;20104;-75
2022/03/31 11:01:33;;;;;;;4.38;3.97;;;;;;;;;;4801452;29;20577;-75
2022/03/31 11:04:08;;;;;;;4.00;3.67;;;;;;;;;;4785876;29;20078;-75
2022/03/31 11:06:45;;;;;;;4.20;3.80;;;;;;;;;;4798761;29;20174;-75
2022/03/31 11:09:19;;;;;;;4.20;3.72;;;;;;;;;;4802553;29;20047;-75
2022/03/31 11:11:49;;;;;;;4.03;3.63;;;;;;;;;;4796927;29;20054;-75
2022/03/31 11:14:17;;;;;;;3.65;3.35;;;;;;;;;;4802062;29;20054;-76
2022/03/31 11:16:44;;;;;;;3.70;3.40;;;;;;;;;;4802771;29;20050;-76
2022/03/31 11:19:10;;;;;;;4.03;3.70;;;;;;;;;;4798620;29;20057;-76
2022/03/31 11:21:37;;;;;;;3.63;3.25;;;;;;;;;;4801798;29;20039;-75
2022/03/31 11:24:05;;;;;;;3.58;3.28;;;;;;;;;;4802809;29;20053;-75
2022/03/31 11:26:32;;;;;;;4.50;3.75;;;;;;;;;;4806055;29;20512;-76
2022/03/31 11:29:10;;;;;;;4.40;4.00;;;;;;;;;;4803729;29;20086;-76
2022/03/31 11:31:36;;;;;;;4.10;3.70;;;;;;;;;;4785639;29;20145;-75
2022/03/31 11:34:02;;;;;;;5.13;4.57;;;;;;;;;;4777485;29;20058;-75
2022/03/31 11:36:36;;;;;;;5.07;4.20;;;;;;;;;;4782456;29;20055;-75
2022/03/31 11:39:02;;;;;;;5.35;4.85;;;;;;;;;;4798290;29;20054;-75
2022/03/31 11:41:42;;;;;;;5.25;4.75;;;;;;;;;;4784730;29;20413;-75
2022/03/31 11:44:09;;;;;;;5.40;4.82;;;;;;;;;;4785364;29;20419;-75
2022/03/31 11:46:47;;;;;;;5.18;4.72;;;;;;;;;;4785663;29;20054;-75
2022/03/31 11:49:17;;;;;;;5.85;4.80;;;;;;;;;;4800468;29;20050;-75
2022/03/31 11:51:56;;;;;;;5.45;4.95;;;;;;;;;;4785106;29;20207;-75
2022/03/31 11:54:23;;;;;;;5.25;4.75;;;;;;;;;;4800839;29;20058;-75
2022/03/31 11:57:02;;;;;;;6.13;5.00;;;;;;;;;;4796851;29;20407;-75
2022/03/31 11:59:28;;;;;;;7.22;6.00;;;;;;;;;;4801759;29;20065;-76
2022/03/31 12:01:55;;;;;;;5.90;5.28;;;;;;;;;;4802626;29;20416;-75
2022/03/31 12:04:42;;;;;;;5.07;4.65;;;;;;;;;;4804975;29;20070;-75
2022/03/31 12:07:09;;;;;;;5.40;4.90;;;;;;;;;;4805644;29;20043;-77
2022/03/31 12:09:38;;;;;;;5.72;5.22;;;;;;;;;;4781450;29;20057;-77
2022/03/31 12:12:06;;;;;;;6.15;5.55;;;;;;;;;;4806719;29;20053;-75
2022/03/31 12:14:34;;;;;;;6.20;5.60;;;;;;;;;;4803182;29;20043;-76
2022/03/31 12:17:00;;;;;;;5.90;5.30;;;;;;;;;;4787515;29;20071;-76
2022/03/31 12:19:37;;;;;;;5.78;5.18;;;;;;;;;;4789173;29;20237;-75
2022/03/31 12:22:03;;;;;;;5.60;5.10;;;;;;;;;;4784428;29;20042;-75
2022/03/31 12:24:29;;;;;;;5.80;5.30;;;;;;;;;;4799798;29;20058;-76
2022/03/31 12:26:55;;;;;;;5.85;5.22;;;;;;;;;;4791063;29;20058;-75
2022/03/31 12:29:22;;;;;;;4.72;4.32;;;;;;;;;;4799739;29;20168;-76
2022/03/31 12:31:48;;;;;;;4.65;4.25;;;;;;;;;;4803958;29;20511;-76
2022/03/31 12:34:14;;;;;;;4.18;3.78;;;;;;;;;;4790579;29;20046;-76
2022/03/31 12:36:42;;;;;;;3.30;3.10;;;;;;;;;;4804441;29;20134;-76
2022/03/31 12:39:08;;;;;;;3.60;3.30;;;;;;;;;;4805106;29;20053;-76
2022/03/31 12:41:36;;;;;;;3.63;3.33;;;;;;;;;;4805434;29;20051;-76
2022/03/31 12:44:15;;;;;;;3.38;2.90;;;;;;;;;;4805064;29;20514;-76
2022/03/31 12:46:53;;;;;;;2.85;2.65;;;;;;;;;;4806081;29;20077;-76
2022/03/31 12:49:21;;;;;;;3.17;2.67;;;;;;;;;;4786366;29;20071;-75
2022/03/31 12:51:51;;;;;;;2.70;2.50;;;;;;;;;;4808606;29;20095;-75
2022/03/31 12:54:24;;;;;;;2.80;2.60;;;;;;;;;;4788724;29;20055;-75
2022/03/31 12:56:50;;;;;;;3.28;2.97;;;;;;;;;;4784707;29;20046;-75
2022/03/31 12:59:17;;;;;;;3.10;2.90;;;;;;;;;;4806437;29;20047;-76
2022/03/31 13:01:54;;;;;;;6.40;3.25;;;;;;;;;;4802015;29;20047;-76
2022/03/31 13:04:20;;;;;;;3.70;3.40;;;;;;;;;;4804818;29;20147;-76
2022/03/31 13:06:46;;;;;;;4.25;3.72;;;;;;;;;;4806208;29;20082;-76
2022/03/31 13:09:12;;;;;;;3.53;2.80;;;;;;;;;;4801840;29;20065;-76
2022/03/31 13:11:39;;;;;;;2.85;2.65;;;;;;;;;;4796726;29;20380;-76
2022/03/31 13:14:05;;;;;;;3.20;2.22;;;;;;;;;;4805149;29;20053;-76
2022/03/31 13:16:31;;;;;;;2.40;2.20;;;;;;;;;;4789299;29;20078;-77
2022/03/31 13:18:57;;;;;;;2.38;2.17;;;;;;;;;;4786641;29;20764;-76
2022/03/31 13:21:26;;;;;;;1.77;1.67;;;;;;;;;;4799240;29;20069;-76
2022/03/31 13:23:52;;;;;;;1.80;1.70;;;;;;;;;;4787298;29;20119;-77
2022/03/31 13:26:20;;;;;;;2.00;1.90;;;;;;;;;;4788411;29;20046;-77
2022/03/31 13:28:46;;;;;;;2.40;2.20;;;;;;;;;;4804467;29;20043;-77
2022/03/31 13:31:12;;;;;;;2.90;2.30;;;;;;;;;;4785358;29;21304;-77
2022/03/31 13:33:38;;;;;;;2.58;2.38;;;;;;;;;;4800296;29;20057;-76
2022/03/31 13:36:04;;;;;;;2.50;2.17;;;;;;;;;;4808334;29;20038;-75
2022/03/31 13:38:31;;;;;;;1.98;1.88;;;;;;;;;;4802669;29;20055;-76
2022/03/31 13:40:58;;;;;;;2.30;2.10;;;;;;;;;;4786548;29;20576;-76
2022/03/31 13:43:25;;;;;;;2.33;2.17;;;;;;;;;;4785300;29;20178;-77
2022/03/31 13:45:51;;;;;;;2.65;2.47;;;;;;;;;;4803210;29;20042;-76
2022/03/31 13:48:18;;;;;;;3.33;3.03;;;;;;;;;;4801343;29;20058;-76
2022/03/31 13:50:45;;;;;;;3.88;3.10;;;;;;;;;;4803231;29;20114;-76
2022/03/31 13:55:56;;;;;;;3.70;3.40;;;;;;;;;;4804334;29;20079;-76
2022/03/31 14:01:08;;;;;;;3.80;3.50;;;;;;;;;;4796923;29;20130;-76
2022/03/31 14:03:35;;;;;;;3.97;3.53;;;;;;;;;;4783816;29;20066;-77
2022/03/31 14:06:01;;;;;;;4.30;3.88;;;;;;;;;;4801721;29;20069;-76
2022/03/31 14:08:27;;;;;;;4.15;3.80;;;;;;;;;;4803415;29;20058;-77
2022/03/31 14:10:54;;;;;;;4.32;3.92;;;;;;;;;;4785804;29;20511;-77
2022/03/31 14:13:20;;;;;;;4.47;4.07;;;;;;;;;;4798345;29;20051;-76
2022/03/31 14:15:46;;;;;;;4.45;4.05;;;;;;;;;;4783627;29;20081;-76
2022/03/31 14:18:12;;;;;;;4.25;3.85;;;;;;;;;;4785788;29;20086;-76
2022/03/31 14:20:38;;;;;;;4.10;3.70;;;;;;;;;;4802899;29;20148;-77
2022/03/31 14:23:04;;;;;;;4.22;3.83;;;;;;;;;;4786131;29;20511;-76
2022/03/31 14:25:31;;;;;;;4.10;3.67;;;;;;;;;;4794252;29;20056;-76
2022/03/31 14:27:57;;;;;;;4.30;3.65;;;;;;;;;;4804517;29;20399;-77
2022/03/31 14:30:23;;;;;;;4.05;3.60;;;;;;;;;;4796970;29;21288;-77
2022/03/31 14:32:49;;;;;;;4.85;4.35;;;;;;;;;;4796631;29;20511;-77
2022/03/31 14:35:17;;;;;;;4.00;3.70;;;;;;;;;;4787798;29;20064;-77
2022/03/31 14:37:43;;;;;;;5.07;4.25;;;;;;;;;;4804105;29;20086;-76
2022/03/31 14:40:10;;;;;;;5.20;3.92;;;;;;;;;;4802136;29;20057;-76
2022/03/31 14:42:36;;;;;;;4.07;3.78;;;;;;;;;;4802500;29;20143;-76
2022/03/31 14:45:03;;;;;;;4.35;3.95;;;;;;;;;;4805554;29;20128;-77
2022/03/31 14:47:31;;;;;;;3.83;3.53;;;;;;;;;;4786284;29;20522;-78
2022/03/31 14:49:57;;;;;;;4.18;3.78;;;;;;;;;;4787961;29;20046;-77
2022/03/31 14:52:24;;;;;;;4.53;3.63;;;;;;;;;;4801402;29;20046;-77
2022/03/31 14:54:51;;;;;;;3.83;3.53;;;;;;;;;;4785894;29;20520;-77
2022/03/31 14:57:20;;;;;;;3.65;3.20;;;;;;;;;;4784515;29;20053;-77
2022/03/31 14:59:46;;;;;;;4.10;3.67;;;;;;;;;;4782847;29;20493;-75